KROX

Roseau Municipal / Rudy Billberg Field Airport

Roseau, Minnesota, USA
METAR KROX 210515Z AUTO 31004KT 10SM CLR 13/09 A3014 RMK AO2
Observed Flight Rules
Aug-21 @ 05:15 UTC (9 hours ago) Visual Flight Rules
Wind Visibility Clouds
310° at 4 knots 10 miles
  • Clear skies
Temperatures Readings
Current 13°C / 55°F
Dewpoint 9°C / 48°F
Humidity 77%
Altimeter 30.14" Hg
Pressure 1021 hPa
Elevation 323
METAR KROX 210515Z AUTO 31004KT 10SM CLR 13/09 A3014 RMK AO2
Observed Flight Rules
Aug-21 @ 05:15 UTC
(9 hours ago)
VFR
Wind Visibility
310° at 4 knots 10 miles
Clouds
  • Clear skies
Temperature Dewpoint
13°C / 55°F 9°C / 48°F
Humidity Altimeter Pressure
77% 30.14" Hg 1021 hPa